Latest Weather Observations for Coen Airport

IDQ60801

Issued at 9:13 pm EST Saturday 9 May 2026 (issued every 10 minutes, with the page automatically refreshed every 10 minutes)

About weather observations | Map of weather stations | Latest weather observations for QLD | Other Formats
Station Details ID: 027073 Name: COEN AIRPORT Lat: -13.76 Lon: 143.12 Height: 159.3 m
Data from the previous 72 hours. | See also: Recent months at Coen Airport
Date/Time
EST
Temp
°C
App
Temp
°C
Dew
Point
°C
Rel
Hum
%
Delta-T
°C
Wind Press
QNH
hPa
Press
MSL
hPa
Rain since
9am
mm
Dir  Spd
km/h
Gust
km/h
Spd
kts
Gust
kts
09/09:00pm 24.9 25.7 21.4 81 2.3 SE 19 30 10 16 1014.4 1013.5 0.0
09/08:30pm 25.0 26.7 21.7 82 2.2 SE 15 24 8 13 1014.2 1013.3 0.0
09/08:15pm 24.8 27.0 21.9 84 1.9 SE 13 19 7 10 1014.1 1013.2 0.0
09/08:11pm 24.8 27.0 21.9 84 1.9 SSE 13 22 7 12 1014.0 1013.1 0.0
09/08:00pm 24.7 27.0 22.0 85 1.8 SE 13 17 7 9 1013.9 1013.0 0.0
09/07:49pm 24.9 26.8 22.0 84 1.9 SE 15 20 8 11 1013.8 1012.9 0.0
09/07:30pm 24.9 27.2 22.0 84 1.9 SSE 13 15 7 8 1013.3 1012.4 0.0
09/07:03pm 24.7 27.3 22.0 85 1.8 SE 11 17 6 9 1013.1 1012.2 0.0
09/07:00pm 24.7 27.0 22.0 85 1.8 SE 13 17 7 9 1013.1 1012.2 0.0
09/06:53pm 24.8 27.1 22.1 85 1.8 SSE 13 19 7 10 1013.1 1012.2 0.0
09/06:30pm 25.2 27.8 21.9 82 2.2 SSE 11 19 6 10 1012.7 1011.8 0.0
09/06:00pm 25.2 26.9 22.3 84 2.0 SE 17 26 9 14 1012.5 1011.6 0.0
09/05:30pm 25.8 28.4 22.7 83 2.1 SSE 13 20 7 11 1012.2 1011.3 0.0
09/05:08pm 25.4 28.4 23.3 88 1.4 SE 13 15 7 8 1012.1 1011.2 0.0
09/05:00pm 25.0 27.1 23.1 89 1.3 SE 17 24 9 13 1012.1 1011.2 0.0
09/04:54pm 25.2 26.7 22.7 86 1.7 ESE 19 24 10 13 1012.1 1011.2 0.0
09/04:47pm 26.8 28.9 22.4 77 3.0 ESE 15 20 8 11 1011.9 1011.0 0.0
09/04:34pm 27.0 29.6 22.0 74 3.4 E 11 20 6 11 1011.7 1010.8 0.0
09/04:30pm 27.2 29.9 22.2 74 3.4 E 11 19 6 10 1011.6 1010.7 0.0
09/04:08pm 27.1 28.4 21.6 72 3.7 E 17 26 9 14 1011.5 1010.6 0.0
09/04:00pm 27.2 28.6 21.9 73 3.6 ESE 17 28 9 15 1011.4 1010.5 0.0
09/03:31pm 27.4 28.8 22.8 76 3.1 SE 20 30 11 16 1011.2 1010.3 0.0
09/03:30pm 27.5 28.8 22.7 75 3.3 SE 20 30 11 16 1011.1 1010.2 0.0
09/03:00pm 28.8 29.4 22.1 67 4.5 ESE 22 33 12 18 1011.1 1010.2 0.0
09/02:37pm 27.9 27.1 21.7 69 4.2 ESE 28 43 15 23 1011.4 1010.5 0.0
09/02:30pm 28.5 29.6 22.3 69 4.2 ESE 20 32 11 17 1011.5 1010.6 0.0
09/02:26pm 28.5 30.0 23.0 72 3.8 ESE 20 32 11 17 1011.5 1010.6 0.0
09/02:01pm 27.5 29.8 23.5 79 2.8 SSE 17 24 9 13 1011.8 1010.9 0.0
09/02:00pm 27.4 29.4 23.0 77 3.0 SSE 17 24 9 13 1011.8 1010.9 0.0
09/01:51pm 27.3 29.4 23.1 78 2.9 SSE 17 24 9 13 1011.9 1011.0 0.0
09/01:47pm 27.7 29.9 23.3 77 3.0 SSE 17 24 9 13 1011.9 1011.0 0.0
09/01:34pm 27.1 28.4 22.7 77 3.0 SE 20 30 11 16 1012.1 1011.2 0.0
09/01:30pm 28.7 30.0 22.4 68 4.3 ESE 19 28 10 15 1012.1 1011.2 0.0
09/01:21pm 28.7 29.7 22.2 68 4.4 ESE 20 30 11 16 1012.1 1011.2 0.0
09/01:00pm 28.9 29.2 22.2 67 4.6 ESE 24 44 13 24 1012.5 1011.6 0.0
09/12:53pm 29.2 30.5 22.7 68 4.4 SE 20 28 11 15 1012.6 1011.7 0.0
09/12:30pm 28.0 28.9 22.7 73 3.6 SE 22 32 12 17 1012.7 1011.8 0.0
09/12:07pm 28.9 29.7 22.4 68 4.4 ESE 22 37 12 20 1012.9 1012.0 0.0
09/12:00pm 28.4 29.3 21.9 68 4.4 ESE 20 37 11 20 1013.1 1012.2 0.0
09/11:30am 27.3 28.2 22.7 76 3.1 SE 22 30 12 16 1013.6 1012.7 0.0
09/11:27am 27.3 28.1 22.5 75 3.3 SE 22 30 12 16 1013.6 1012.7 0.0
09/11:00am 29.8 31.5 23.0 67 4.7 ESE 19 32 10 17 1013.7 1012.8 0.0
09/10:30am 27.4 28.7 22.4 74 3.4 SE 19 26 10 14 1014.2 1013.3 0.0
09/10:00am 26.5 27.8 22.3 78 2.8 SE 19 28 10 15 1014.4 1013.5 0.0
09/09:49am 27.7 29.2 22.0 71 3.9 ESE 17 28 9 15 1014.3 1013.4 0.0
09/09:39am 27.5 29.5 22.2 73 3.6 SE 15 22 8 12 1014.1 1013.2 0.0
09/09:30am 26.9 28.5 22.1 75 3.2 SE 17 28 9 15 1014.0 1013.1 0.0
09/09:00am 27.2 28.1 21.5 71 3.8 ESE 19 26 10 14 1013.9 1013.0 0.2
09/08:30am 27.6 29.5 22.1 72 3.7 SE 15 22 8 12 1013.5 1012.6 0.2
09/08:00am 26.1 27.7 21.5 76 3.1 SSE 15 20 8 11 1013.2 1012.3 0.2
09/07:30am 24.3 26.6 21.4 84 1.9 SE 11 15 6 8 1013.0 1012.1 0.2
09/07:00am 23.4 25.5 20.9 86 1.6 SSE 11 15 6 8 1012.6 1011.7 0.2
09/06:30am 23.4 25.5 20.9 86 1.6 SSE 11 15 6 8 1012.1 1011.2 0.2
09/06:00am 23.2 25.4 21.1 88 1.4 SE 11 13 6 7 1012.0 1011.1 0.2
09/05:30am 23.4 25.6 21.1 87 1.5 SSE 11 20 6 11 1011.9 1011.0 0.0
09/05:00am 23.7 26.0 21.4 87 1.5 SSE 11 17 6 9 1011.9 1011.0 0.0
09/04:30am 23.5 25.5 21.6 89 1.3 S 13 20 7 11 1011.9 1011.0 0.0
09/04:27am 23.6 25.7 21.7 89 1.3 SSE 13 20 7 11 1011.9 1011.0 0.0
09/04:00am 23.3 25.1 21.9 92 0.9 S 15 17 8 9 1012.0 1011.1 0.0
09/03:48am 23.1 25.7 21.9 93 0.8 S 11 15 6 8 1012.0 1011.1 0.0
09/03:30am 23.0 26.4 22.0 94 0.7 SSE 7 13 4 7 1012.0 1011.1 0.0
09/03:00am 23.0 25.3 22.0 94 0.7 SSE 13 17 7 9 1012.1 1011.2 0.0
09/02:30am 23.0 25.3 22.0 94 0.7 S 13 19 7 10 1012.4 1011.5 0.0
09/02:00am 23.0 25.6 22.0 94 0.7 S 11 15 6 8 1012.5 1011.6 0.0
09/01:30am 23.0 26.1 22.2 95 0.5 S 9 13 5 7 1012.7 1011.8 0.0
09/01:00am 23.1 25.7 21.9 93 0.8 S 11 17 6 9 1013.0 1012.1 0.0
09/12:50am 23.3 26.0 22.1 93 0.8 S 11 17 6 9 1013.0 1012.1 0.0
09/12:30am 23.4 26.4 22.0 92 0.9 SSE 9 15 5 8 1013.2 1012.3 0.0
09/12:03am 23.7 27.7 22.0 90 1.1 SSW 4 7 2 4 1013.3 1012.4 0.0
09/12:00am 23.7 27.3 22.0 90 1.1 SSW 6 9 3 5 1013.3 1012.4 0.0
 
Date/Time
EST
Temp
°C
App
Temp
°C
Dew
Point
°C
Rel
Hum
%
Delta-T
°C
Wind Press
QNH
hPa
Press
MSL
hPa
Rain since
9am
mm
Dir  Spd
km/h
Gust
km/h
Spd
kts
Gust
kts
08/11:30pm 23.4 26.4 22.0 92 0.9 S 9 13 5 7 1013.4 1012.5 0.0
08/11:26pm 23.5 26.6 22.1 92 0.9 S 9 13 5 7 1013.4 1012.5 0.0
08/11:00pm 23.5 26.6 22.1 92 0.9 SSE 9 13 5 7 1013.7 1012.8 0.0
08/10:47pm 23.7 27.3 22.3 92 0.9 SSE 7 11 4 6 1013.8 1012.9 0.0
08/10:30pm 23.7 27.3 22.3 92 0.9 SSE 7 13 4 7 1013.8 1012.9 0.0
08/10:00pm 23.8 27.4 22.4 92 0.9 SSE 7 13 4 7 1013.8 1012.9 0.0
08/09:30pm 23.7 26.2 22.5 93 0.8 SSE 13 17 7 9 1013.7 1012.8 0.0
08/09:02pm 24.0 27.1 22.8 93 0.8 SE 11 19 6 10 1013.7 1012.8 0.0
08/09:00pm 24.0 27.0 22.6 92 0.9 SE 11 19 6 10 1013.8 1012.9 0.0
08/08:40pm 24.4 27.8 22.7 90 1.1 SSE 9 13 5 7 1013.7 1012.8 0.0
08/08:30pm 24.5 28.0 22.8 90 1.2 SSE 9 13 5 7 1013.5 1012.6 0.0
08/08:00pm 24.7 28.2 22.8 89 1.3 SE 9 11 5 6 1013.0 1012.1 0.0
08/07:30pm 25.1 28.8 22.6 86 1.7 ESE 7 11 4 6 1012.6 1011.7 0.0
08/07:00pm 24.9 30.1 22.8 88 1.4 CALM 0 0 0 0 1012.2 1011.3 0.0
08/06:30pm 25.0 28.3 22.5 86 1.7 ESE 9 15 5 8 1012.0 1011.1 0.0
08/06:00pm 27.0 29.4 21.5 72 3.7 E 11 20 6 11 1011.6 1010.7 0.0
08/05:30pm 27.3 29.0 21.6 71 3.8 E 15 24 8 13 1011.5 1010.6 0.0
08/05:00pm 28.3 30.3 21.6 67 4.5 ESE 13 19 7 10 1011.2 1010.3 0.0
08/04:30pm 28.3 30.2 21.3 65 4.7 ESE 13 22 7 12 1011.0 1010.1 0.0
08/04:00pm 29.9 30.9 21.0 59 6.0 ESE 17 26 9 14 1010.8 1009.8 0.0
08/03:30pm 29.9 30.5 21.0 59 6.0 SE 19 28 10 15 1010.8 1009.8 0.0
08/03:00pm 29.0 29.3 20.4 59 5.7 ESE 19 28 10 15 1011.0 1010.1 0.0
08/02:30pm 28.7 28.3 20.2 60 5.6 ESE 22 37 12 20 1011.2 1010.3 0.0
08/02:00pm 29.6 30.6 21.0 60 5.8 E 17 30 9 16 1011.4 1010.5 0.0
08/01:30pm 29.8 31.0 21.5 61 5.6 ENE 17 26 9 14 1011.5 1010.6 0.0
08/01:00pm 29.3 29.5 21.3 62 5.4 ENE 22 33 12 18 1011.7 1010.8 0.0
08/12:30pm 30.1 31.0 20.9 57 6.2 ENE 17 28 9 15 1012.3 1011.4 0.0
08/12:00pm 29.4 30.0 21.1 61 5.6 E 19 33 10 18 1012.7 1011.8 0.0
08/11:30am 30.1 31.2 21.2 59 6.0 ENE 17 24 9 13 1013.0 1012.1 0.0
08/11:00am 29.4 30.4 21.1 61 5.6 ENE 17 30 9 16 1013.4 1012.5 0.0
08/10:30am 27.9 28.3 20.7 65 4.8 E 19 24 10 13 1013.8 1012.9 0.0
08/10:00am 27.8 28.5 20.4 64 4.9 ESE 17 26 9 14 1013.7 1012.8 0.0
08/09:30am 27.6 28.2 20.2 64 4.9 ESE 17 32 9 17 1013.8 1012.9 0.0
08/09:00am 27.0 28.6 20.8 69 4.1 ESE 13 20 7 11 1013.8 1012.9 0.0
08/08:30am 24.1 28.2 20.8 82 2.2 CALM 0 0 0 0 1013.6 1012.7 0.0
08/08:00am 22.9 25.0 20.1 84 1.8 SSE 9 13 5 7 1013.4 1012.5 0.0
08/07:30am 22.7 25.4 20.6 88 1.4 ESE 7 11 4 6 1013.4 1012.5 0.0
08/07:00am 21.3 23.8 19.8 91 1.0 ENE 6 11 3 6 1013.0 1012.1 0.0
08/06:30am 20.5 24.0 19.5 94 0.6 CALM 0 0 0 0 1012.7 1011.8 0.0
08/06:00am 20.3 23.7 19.3 94 0.6 CALM 0 6 0 3 1012.5 1011.6 0.0
08/05:30am 20.2 23.5 19.2 94 0.6 CALM 0 6 0 3 1012.3 1011.4 0.0
08/05:00am 20.6 24.0 19.3 92 0.8 CALM 0 0 0 0 1012.4 1011.5 0.0
08/04:30am 20.5 22.7 19.3 93 0.8 SE 6 11 3 6 1012.2 1011.3 0.0
08/04:00am 20.5 22.3 19.5 94 0.6 SE 9 13 5 7 1012.2 1011.3 0.0
08/03:30am 21.3 23.7 19.6 90 1.1 SE 6 9 3 5 1012.3 1011.4 0.0
08/03:00am 21.5 24.1 20.0 91 1.0 SE 6 7 3 4 1012.2 1011.3 0.0
08/02:30am 22.4 25.0 20.5 89 1.2 S 7 9 4 5 1012.3 1011.4 0.0
08/02:00am 22.5 26.4 20.4 88 1.4 CALM 0 0 0 0 1012.5 1011.6 0.0
08/01:30am 22.9 26.5 20.6 87 1.5 SE 2 7 1 4 1012.6 1011.7 0.0
08/01:00am 24.1 28.3 21.0 83 2.0 CALM 0 0 0 0 1013.0 1012.1 0.0
08/12:30am 24.2 28.5 21.1 83 2.0 CALM 0 6 0 3 1013.2 1012.3 0.0
08/12:00am 23.9 28.4 21.6 87 1.5 CALM 0 7 0 4 1013.4 1012.5 0.0
 
Date/Time
EST
Temp
°C
App
Temp
°C
Dew
Point
°C
Rel
Hum
%
Delta-T
°C
Wind Press
QNH
hPa
Press
MSL
hPa
Rain since
9am
mm
Dir  Spd
km/h
Gust
km/h
Spd
kts
Gust
kts
07/11:30pm 23.4 27.4 21.3 88 1.4 SE 2 9 1 5 1013.5 1012.6 0.0
07/11:00pm 23.2 27.5 21.1 88 1.4 CALM 0 0 0 0 1013.5 1012.6 0.0
07/10:30pm 23.2 27.2 20.5 85 1.8 CALM 0 0 0 0 1013.6 1012.7 0.0
07/10:00pm 23.5 26.4 20.6 84 1.9 NNE 6 9 3 5 1013.8 1012.9 0.0
07/09:30pm 23.9 26.1 20.4 81 2.3 ENE 9 13 5 7 1013.8 1012.9 0.0
07/09:00pm 23.3 26.5 20.4 84 1.9 E 4 11 2 6 1013.7 1012.8 0.0
07/08:30pm 24.2 27.6 20.1 78 2.7 ENE 2 7 1 4 1013.6 1012.7 0.0
07/08:00pm 24.5 27.1 20.0 76 2.9 ENE 6 13 3 7 1013.4 1012.5 0.0
07/07:30pm 24.3 26.7 20.0 77 2.8 E 7 13 4 7 1012.9 1012.0 0.0
07/07:00pm 24.9 27.0 20.2 75 3.1 E 9 15 5 8 1012.5 1011.6 0.0
07/06:30pm 25.4 27.9 20.2 73 3.4 ENE 7 11 4 6 1012.2 1011.3 0.0
07/06:00pm 26.4 28.2 20.3 69 4.0 ENE 11 19 6 10 1011.7 1010.8 0.0
07/05:30pm 27.9 29.0 19.7 61 5.4 ENE 13 20 7 11 1011.3 1010.4 0.0
07/05:00pm 29.3 30.4 18.1 51 7.2 E 9 15 5 8 1011.1 1010.2 0.0
07/04:30pm 29.8 30.0 18.6 51 7.3 E 15 22 8 12 1010.8 1009.8 0.0
07/04:00pm 29.5 29.0 17.7 49 7.6 ESE 17 28 9 15 1010.7 1009.7 0.0
07/03:30pm 28.6 28.6 19.0 56 6.2 SE 17 22 9 12 1010.7 1009.7 0.0
07/03:00pm 29.9 31.9 19.9 55 6.6 E 9 15 5 8 1010.5 1009.6 0.0
07/02:30pm 31.2 32.2 19.5 49 7.7 ENE 13 20 7 11 1010.7 1009.7 0.0
07/02:00pm 30.9 32.2 19.3 50 7.6 ESE 11 17 6 9 1010.8 1009.8 0.0
07/01:30pm 29.5 31.0 18.9 53 6.9 E 9 20 5 11 1011.3 1010.4 0.0
07/01:00pm 30.7 31.7 19.4 51 7.4 ESE 13 22 7 12 1011.5 1010.6 0.0
07/12:30pm 31.5 32.5 19.5 49 7.9 ENE 13 20 7 11 1011.9 1011.0 0.0
07/12:00pm 30.8 31.1 19.5 51 7.4 SE 17 30 9 16 1012.4 1011.5 0.0
07/11:30am 30.5 30.3 18.6 49 7.7 SE 17 28 9 15 1012.8 1011.9 0.0
07/11:00am 30.7 31.0 18.8 49 7.8 ESE 15 26 8 14 1013.2 1012.3 0.0
07/10:30am 29.6 31.4 19.6 55 6.6 NE 9 19 5 10 1013.6 1012.7 0.0
07/10:00am 28.4 30.6 19.6 59 5.8 SE 7 13 4 7 1013.6 1012.7 0.0
07/09:30am 27.4 31.4 20.5 66 4.6 CALM 0 6 0 3 1013.5 1012.6 0.0
07/09:00am 26.1 30.1 21.3 75 3.2 NW 2 6 1 3 1013.3 1012.4 0.0
07/08:30am 24.1 28.2 20.8 82 2.2 CALM 0 6 0 3 1013.2 1012.3 0.0
07/08:00am 23.1 27.5 21.4 90 1.1 CALM 0 0 0 0 1013.0 1012.1 0.0
07/07:30am 21.2 24.7 20.4 95 0.5 ESE 2 7 1 4 1012.9 1012.0 0.0
07/07:00am 19.5 22.8 19.0 97 0.3 CALM 0 7 0 4 1012.7 1011.8 0.0
07/06:30am 19.0 22.0 18.5 97 0.3 CALM 0 0 0 0 1012.6 1011.7 0.0
07/06:00am 19.0 22.0 18.5 97 0.3 CALM 0 0 0 0 1012.4 1011.5 0.0
07/05:30am 19.2 22.2 18.5 96 0.4 CALM 0 0 0 0 1012.2 1011.3 0.0
07/05:00am 19.9 23.2 19.2 96 0.4 CALM 0 0 0 0 1012.1 1011.2 0.0
07/04:30am 20.0 23.0 19.3 96 0.4 NE 2 9 1 5 1012.0 1011.1 0.0
07/04:00am 20.5 22.4 19.8 96 0.4 SW 9 11 5 6 1012.0 1011.1 0.0
07/03:30am 20.6 24.3 19.9 96 0.4 CALM 0 0 0 0 1012.1 1011.2 0.0
07/03:00am 20.6 23.9 19.9 96 0.4 N 2 7 1 4 1012.2 1011.3 0.0
07/02:30am 21.6 25.4 20.2 92 0.9 CALM 0 0 0 0 1012.3 1011.4 0.0
07/02:00am 22.3 26.4 20.8 91 1.0 CALM 0 0 0 0 1012.6 1011.7 0.0
07/01:30am 22.4 25.4 20.9 91 1.0 NNE 6 7 3 4 1012.7 1011.8 0.0
07/01:00am 22.6 25.0 20.9 90 1.1 SE 9 11 5 6 1012.9 1012.0 0.0
07/12:30am 22.8 27.0 20.9 89 1.2 CALM 0 6 0 3 1013.0 1012.1 0.0
07/12:00am 22.6 26.4 20.9 90 1.1 WNW 2 7 1 4 1013.3 1012.4 0.0
 
Date/Time
EST
Temp
°C
App
Temp
°C
Dew
Point
°C
Rel
Hum
%
Delta-T
°C
Wind Press
QNH
hPa
Press
MSL
hPa
Rain since
9am
mm
Dir  Spd
km/h
Gust
km/h
Spd
kts
Gust
kts
06/11:30pm 22.7 25.0 20.6 88 1.4 E 9 11 5 6 1013.5 1012.6 0.0
06/11:00pm 22.5 26.1 20.6 89 1.2 ESE 2 9 1 5 1013.6 1012.7 0.0
06/10:30pm 22.2 25.9 20.7 91 1.0 ESE 2 9 1 5 1013.7 1012.8 0.0
06/10:00pm 22.3 26.0 20.0 87 1.5 CALM 0 0 0 0 1013.6 1012.7 0.0
06/09:30pm 23.5 25.5 20.0 81 2.3 E 9 11 5 6 1013.6 1012.7 0.0

Other formats

Comma delimited format used in spreadsheet applications
http://www.bom.gov.au/fwo/IDQ60801/IDQ60801.94183.axf

JavaScript Object Notation format (JSON) in row-major order
http://www.bom.gov.au/fwo/IDQ60801/IDQ60801.94183.json

Data quality

Most of these data are generated automatically and are frequently updated. Quality checks on data are not normally performed. It is possible for incorrect values to appear. Refer to information at About Latest Weather Observations and please check the disclaimer before using these data.